createdAt,value
2019-01-03T00:00:10.848Z,8.37
2019-01-03T00:03:10.095Z,6.03
2019-01-03T00:05:59.257Z,6.13
2019-01-03T00:08:47.623Z,10.73
2019-01-03T00:11:37.980Z,5.70
2019-01-03T00:14:20.471Z,9.83
2019-01-03T00:17:07.303Z,10.90
2019-01-03T00:19:43.733Z,5.43
2019-01-03T00:22:39.363Z,7.97
2019-01-03T00:25:28.312Z,9.97
2019-01-03T00:28:15.443Z,12.20
2019-01-03T00:30:57.704Z,7.93
2019-01-03T00:33:35.648Z,6.30
2019-01-03T00:36:08.865Z,11.33
2019-01-03T00:39:00.676Z,8.80
2019-01-03T00:41:32.566Z,6.87
2019-01-03T00:44:10.190Z,8.97
2019-01-03T00:47:06.248Z,8.90
2019-01-03T00:49:49.150Z,4.40
2019-01-03T00:52:22.229Z,4.57
2019-01-03T00:55:06.714Z,5.53
2019-01-03T00:57:56.883Z,11.43
2019-01-03T01:00:33.924Z,7.50
2019-01-03T01:03:13.687Z,7.30
2019-01-03T01:05:58.333Z,10.13
2019-01-03T01:08:41.981Z,6.83
2019-01-03T01:11:34.827Z,5.50
2019-01-03T01:14:08.573Z,4.87
2019-01-03T01:16:42.596Z,7.37
2019-01-03T01:19:27.068Z,4.07
2019-01-03T01:22:14.669Z,6.70
2019-01-03T01:24:56.248Z,4.20
2019-01-03T01:27:48.988Z,3.03
2019-01-03T01:30:25.979Z,6.83
2019-01-03T01:33:19.042Z,6.00
2019-01-03T01:36:06.991Z,6.00
2019-01-03T01:38:42.751Z,7.40
2019-01-03T01:41:17.102Z,4.67
2019-01-03T01:43:51.544Z,4.27
2019-01-03T01:46:50.044Z,6.20
2019-01-03T01:49:26.884Z,12.60
2019-01-03T01:52:10.828Z,7.93
2019-01-03T01:55:02.573Z,3.93
2019-01-03T01:57:59.978Z,8.47
2019-01-03T02:00:39.001Z,7.37
2019-01-03T02:03:19.046Z,5.53
2019-01-03T02:06:00.360Z,4.87
2019-01-03T02:08:37.378Z,6.97
2019-01-03T02:11:18.882Z,4.70
2019-01-03T02:14:16.185Z,5.93
2019-01-03T02:16:46.579Z,6.63
2019-01-03T02:19:24.659Z,8.00
2019-01-03T02:22:07.704Z,5.03
2019-01-03T02:24:46.427Z,4.57
2019-01-03T02:27:24.476Z,6.83
2019-01-03T02:30:14.203Z,6.77
2019-01-03T02:32:47.577Z,9.63
2019-01-03T02:35:28.645Z,6.43
2019-01-03T02:38:19.568Z,4.53
2019-01-03T02:41:13.107Z,6.57
2019-01-03T02:44:02.971Z,2.80
2019-01-03T02:46:53.028Z,6.50
2019-01-03T02:50:13.417Z,8.40
2019-01-03T02:52:38.672Z,4.87
2019-01-03T02:55:20.060Z,10.17
2019-01-03T02:58:05.155Z,11.40
2019-01-03T03:00:47.823Z,8.27
2019-01-03T03:03:24.931Z,10.33
2019-01-03T03:06:19.885Z,6.43
2019-01-03T03:09:11.398Z,5.50
2019-01-03T03:12:15.448Z,5.10
2019-01-03T03:15:03.676Z,6.53
2019-01-03T03:17:57.107Z,5.60
2019-01-03T03:20:34.509Z,3.93
2019-01-03T03:23:24.230Z,6.77
2019-01-03T03:26:14.868Z,5.03
2019-01-03T03:29:13.123Z,6.13
2019-01-03T03:32:03.141Z,3.70
2019-01-03T03:34:57.012Z,6.43
2019-01-03T03:37:41.156Z,4.07
2019-01-03T03:40:22.402Z,4.67
2019-01-03T03:43:05.788Z,3.97
2019-01-03T03:45:46.434Z,12.67
2019-01-03T03:48:42.394Z,5.70
2019-01-03T03:51:08.695Z,6.40
2019-01-03T03:53:47.383Z,4.83
2019-01-03T03:56:33.608Z,5.13
2019-01-03T03:59:08.877Z,4.00
2019-01-03T04:01:51.042Z,4.93
2019-01-03T04:04:31.200Z,5.80
2019-01-03T04:07:05.360Z,6.23
2019-01-03T04:09:54.642Z,6.03
2019-01-03T04:12:29.330Z,5.73
2019-01-03T04:15:07.095Z,7.00
2019-01-03T04:17:53.725Z,4.47
2019-01-03T04:20:25.003Z,5.83
2019-01-03T04:23:02.103Z,7.33
2019-01-03T04:25:43.940Z,4.80
2019-01-03T04:28:22.607Z,6.03
2019-01-03T04:31:02.201Z,7.43
2019-01-03T04:33:34.545Z,4.07
2019-01-03T04:36:23.399Z,3.20
2019-01-03T04:39:06.571Z,6.37
2019-01-03T04:41:46.738Z,4.67
2019-01-03T04:44:37.358Z,3.00
2019-01-03T04:47:21.619Z,6.90
2019-01-03T04:50:10.650Z,3.97
2019-01-03T04:52:46.401Z,5.53
2019-01-03T04:55:23.919Z,6.33
2019-01-03T04:58:01.411Z,4.00
2019-01-03T05:00:47.873Z,6.63
2019-01-03T05:03:31.783Z,6.30
2019-01-03T05:06:23.884Z,5.50
2019-01-03T05:09:07.448Z,7.83
2019-01-03T05:11:36.596Z,9.57
2019-01-03T05:14:12.803Z,3.87
2019-01-03T05:16:48.717Z,6.63
2019-01-03T05:19:24.501Z,5.23
2019-01-03T05:22:14.920Z,2.43
2019-01-03T05:24:59.765Z,3.50
2019-01-03T05:27:41.747Z,3.40
2019-01-03T05:30:30.552Z,6.70
2019-01-03T05:33:15.589Z,11.83
2019-01-03T05:35:58.491Z,7.67
2019-01-03T05:38:47.970Z,2.40
2019-01-03T05:41:30.067Z,7.60
2019-01-03T05:44:08.386Z,8.40
2019-01-03T05:46:47.506Z,2.40
2019-01-03T05:49:40.565Z,6.43
2019-01-03T05:52:25.222Z,6.53
2019-01-03T05:55:04.234Z,5.87
2019-01-03T05:57:56.455Z,6.03
2019-01-03T06:00:39.805Z,5.53
2019-01-03T06:03:29.968Z,7.63
2019-01-03T06:06:21.267Z,7.53
2019-01-03T06:08:59.481Z,10.60
2019-01-03T06:11:32.761Z,8.57
2019-01-03T06:14:14.618Z,6.00
2019-01-03T06:17:03.851Z,5.17
2019-01-03T06:19:51.518Z,8.07
2019-01-03T06:22:30.162Z,3.53
2019-01-03T06:25:13.414Z,8.83
2019-01-03T06:27:45.042Z,5.33
2019-01-03T06:30:37.667Z,6.73
2019-01-03T06:33:16.553Z,6.33
2019-01-03T06:35:49.400Z,7.97
2019-01-03T06:38:28.215Z,10.93
2019-01-03T06:41:02.707Z,6.13
2019-01-03T06:43:48.009Z,5.10
2019-01-03T06:46:26.497Z,6.43
2019-01-03T06:49:12.879Z,7.20
2019-01-03T06:52:05.279Z,6.53
2019-01-03T06:54:59.378Z,4.37
2019-01-03T06:57:29.359Z,4.67
2019-01-03T07:00:05.160Z,5.83
2019-01-03T07:02:43.822Z,4.10
2019-01-03T07:05:20.821Z,7.17
2019-01-03T07:07:53.275Z,8.20
2019-01-03T07:10:26.364Z,7.07
2019-01-03T07:13:27.238Z,9.30
2019-01-03T07:16:04.375Z,11.87
2019-01-03T07:18:43.962Z,6.53
2019-01-03T07:21:14.486Z,8.60
2019-01-03T07:23:59.408Z,5.63
2019-01-03T07:26:31.297Z,5.97
2019-01-03T07:29:21.220Z,5.00
2019-01-03T07:32:00.519Z,3.33
2019-01-03T07:34:49.179Z,5.83
2019-01-03T07:37:40.763Z,9.07
2019-01-03T07:40:31.113Z,9.63
2019-01-03T07:43:02.823Z,5.23
2019-01-03T07:45:40.531Z,6.37
2019-01-03T07:48:32.794Z,5.97
2019-01-03T07:51:30.163Z,9.67
2019-01-03T07:53:56.452Z,7.23
2019-01-03T07:56:49.975Z,10.67
2019-01-03T07:59:41.276Z,6.53
2019-01-03T08:02:31.197Z,5.47
2019-01-03T08:05:08.658Z,6.03
2019-01-03T08:07:45.659Z,5.70
2019-01-03T08:10:16.992Z,5.20
2019-01-03T08:13:02.260Z,5.73
2019-01-03T08:15:42.449Z,6.23
2019-01-03T08:18:24.124Z,16.23
2019-01-03T08:21:00.089Z,10.33
2019-01-03T08:24:06.361Z,12.93
2019-01-03T08:27:03.572Z,9.47
2019-01-03T08:30:56.322Z,8.30
2019-01-03T08:33:45.687Z,7.53
2019-01-03T08:40:54.774Z,15.57
2019-01-03T08:45:50.668Z,12.43
2019-01-03T08:59:28.017Z,11.50
2019-01-03T09:02:27.181Z,7.43
2019-01-03T09:05:41.979Z,11.63
2019-01-03T09:18:51.153Z,8.73
2019-01-03T09:22:08.145Z,9.33
2019-01-03T09:28:24.326Z,18.40
2019-01-03T09:31:37.218Z,13.80
2019-01-03T09:34:58.127Z,14.27
2019-01-03T09:38:09.930Z,13.40
2019-01-03T09:41:27.120Z,17.23
2019-01-03T09:43:30.788Z,14.03
2019-01-03T09:49:44.581Z,12.63
2019-01-03T09:52:05.923Z,15.97
2019-01-03T09:54:56.646Z,8.00
2019-01-03T09:58:12.956Z,16.83
2019-01-03T10:00:45.763Z,12.07
2019-01-03T10:03:23.543Z,10.03
2019-01-03T10:06:05.936Z,19.67
2019-01-03T10:08:46.987Z,11.77
2019-01-03T10:11:56.741Z,12.63
2019-01-03T10:14:34.916Z,18.30
2019-01-03T10:17:36.109Z,13.57
2019-01-03T10:20:30.469Z,10.50
2019-01-03T10:29:39.902Z,13.03
2019-01-03T10:32:20.961Z,8.80
2019-01-03T10:35:25.612Z,9.97
2019-01-03T10:38:34.056Z,10.13
2019-01-03T10:41:22.262Z,13.30
2019-01-03T10:53:59.206Z,15.33
2019-01-03T11:02:45.518Z,9.90
2019-01-03T11:09:08.152Z,10.07
2019-01-03T11:25:20.706Z,11.50
2019-01-03T12:04:41.262Z,13.40
2019-01-03T12:21:01.508Z,14.57
2019-01-03T12:23:39.387Z,8.30
2019-01-03T12:26:07.761Z,7.50
2019-01-03T12:28:37.615Z,10.20
2019-01-03T12:31:09.707Z,11.00
2019-01-03T12:33:42.773Z,9.80
2019-01-03T12:36:15.822Z,10.73
2019-01-03T12:38:45.419Z,13.53
2019-01-03T12:41:15.044Z,8.40
2019-01-03T12:43:44.758Z,16.03
2019-01-03T12:46:15.964Z,9.80
2019-01-03T12:48:45.671Z,15.63
2019-01-03T12:51:15.232Z,14.50
2019-01-03T12:53:44.816Z,13.53
2019-01-03T12:56:14.375Z,13.30
2019-01-03T12:58:44.074Z,15.27
2019-01-03T13:01:13.967Z,13.67
2019-01-03T13:03:43.688Z,11.93
2019-01-03T13:06:13.660Z,13.47
2019-01-03T13:08:43.358Z,14.00
2019-01-03T13:11:16.258Z,15.87
2019-01-03T13:13:46.495Z,17.80
2019-01-03T13:16:16.364Z,16.20
2019-01-03T13:18:46.227Z,14.07
2019-01-03T13:21:16.306Z,15.23
2019-01-03T13:23:49.244Z,13.87
2019-01-03T13:26:19.149Z,10.63
2019-01-03T13:28:48.734Z,22.70
2019-01-03T13:31:18.568Z,17.67
2019-01-03T13:33:48.933Z,9.20
2019-01-03T13:36:18.638Z,11.50
2019-01-03T13:38:48.557Z,12.53
2019-01-03T13:41:18.276Z,16.10
2019-01-03T13:43:48.335Z,12.73
2019-01-03T13:46:17.872Z,10.70
2019-01-03T13:48:47.854Z,10.93
2019-01-03T14:07:42.121Z,14.33
2019-01-03T14:37:20.578Z,19.27
2019-01-03T14:39:50.268Z,17.57
2019-01-03T14:42:19.740Z,20.53
2019-01-03T14:44:49.459Z,13.53
2019-01-03T14:47:18.975Z,16.53
2019-01-03T14:49:48.626Z,19.17
2019-01-03T14:52:18.428Z,19.87
2019-01-03T14:54:48.123Z,18.10
2019-01-03T14:57:17.787Z,22.00
2019-01-03T14:59:47.360Z,25.07
2019-01-03T15:02:17.016Z,16.43
2019-01-03T15:04:46.690Z,21.33
2019-01-03T15:07:16.253Z,24.77
2019-01-03T15:09:45.936Z,21.60
2019-01-03T15:12:15.916Z,15.97
2019-01-03T15:14:45.722Z,15.90
2019-01-03T15:17:15.571Z,15.23
2019-01-03T15:19:45.343Z,13.20
2019-01-03T15:22:15.317Z,16.03
2019-01-03T15:24:45.071Z,14.93
2019-01-03T15:44:49.895Z,25.57
2019-01-03T15:47:19.654Z,15.90
2019-01-03T15:49:49.151Z,17.67
2019-01-03T15:52:18.814Z,15.00
2019-01-03T15:54:48.399Z,15.00
2019-01-03T15:57:18.142Z,17.87
2019-01-03T15:59:47.837Z,21.67
2019-01-03T16:02:17.482Z,16.80
2019-01-03T16:04:47.120Z,20.90
2019-01-03T16:07:16.817Z,23.57
2019-01-03T16:09:46.491Z,25.83
2019-01-03T16:12:16.316Z,17.20
2019-01-03T16:14:45.784Z,16.50
2019-01-03T16:17:15.506Z,19.27
2019-01-03T16:19:45.277Z,20.47
2019-01-03T16:22:15.346Z,17.10
2019-01-03T16:24:45.181Z,19.03
2019-01-03T16:27:15.252Z,19.43
2019-01-03T16:29:44.876Z,26.07
2019-01-03T16:32:14.490Z,19.80
2019-01-03T16:34:44.116Z,16.17
2019-01-03T16:37:13.894Z,16.20
2019-01-03T16:39:43.568Z,17.27
2019-01-03T16:42:13.235Z,28.10
2019-01-03T16:44:43.182Z,15.67
2019-01-03T16:47:13.182Z,19.50
2019-01-03T16:49:42.899Z,17.53
2019-01-03T16:52:12.786Z,17.23
2019-01-03T16:54:42.395Z,18.20
2019-01-03T16:57:12.145Z,18.17
2019-01-03T16:59:41.828Z,14.67
2019-01-03T17:02:11.436Z,16.03
2019-01-03T17:04:41.114Z,25.17
2019-01-03T17:07:10.919Z,16.67
2019-01-03T17:09:40.695Z,15.60
2019-01-03T17:12:31.689Z,18.77
2019-01-03T17:15:08.679Z,21.60
2019-01-03T17:17:40.527Z,27.00
2019-01-03T17:20:10.966Z,26.87
2019-01-03T17:22:41.149Z,26.50
2019-01-03T17:25:11.577Z,32.00
2019-01-03T17:27:41.258Z,26.43
2019-01-03T17:30:12.300Z,21.53
2019-01-03T17:32:43.855Z,20.33
2019-01-03T17:35:13.617Z,26.83
2019-01-03T17:37:43.434Z,19.67
2019-01-03T17:40:13.095Z,19.17
2019-01-03T17:42:42.849Z,18.20
2019-01-03T17:45:12.399Z,21.90
2019-01-03T17:47:42.164Z,21.13
2019-01-03T17:50:12.454Z,19.70
2019-01-03T17:52:42.400Z,26.07
2019-01-03T17:55:12.071Z,25.17
2019-01-03T17:57:41.675Z,31.37
2019-01-03T18:00:17.139Z,20.93
2019-01-03T18:02:46.979Z,24.23
2019-01-03T18:05:16.590Z,30.37
2019-01-03T18:07:46.314Z,29.30
2019-01-03T18:10:16.015Z,20.97
2019-01-03T18:12:45.625Z,32.33
2019-01-03T18:15:15.419Z,26.87
2019-01-03T18:17:44.993Z,23.07
2019-01-03T18:20:15.507Z,23.00
2019-01-03T18:22:45.348Z,21.00
2019-01-03T18:25:14.945Z,18.97
2019-01-03T18:27:44.702Z,22.37
2019-01-03T18:30:14.338Z,20.77
2019-01-03T18:32:44.022Z,26.63
2019-01-03T18:35:15.701Z,25.07
2019-01-03T18:37:45.347Z,22.17
2019-01-03T18:40:15.107Z,19.57
2019-01-03T18:42:44.883Z,19.80
2019-01-03T18:45:20.365Z,18.47
2019-01-03T18:47:50.038Z,23.97
2019-01-03T18:50:21.884Z,29.93
2019-01-03T18:52:51.621Z,19.60
2019-01-03T18:55:21.322Z,22.23
2019-01-03T18:57:51.168Z,19.93
2019-01-03T19:00:21.000Z,21.33
2019-01-03T19:02:54.970Z,16.90
2019-01-03T19:08:47.106Z,16.57
2019-01-03T19:11:17.013Z,21.17
2019-01-03T19:13:46.901Z,40.27
2019-01-03T19:16:17.064Z,15.80
2019-01-03T19:18:47.071Z,16.07
2019-01-03T19:21:17.047Z,16.20
2019-01-03T19:23:48.015Z,24.60
2019-01-03T19:26:22.797Z,19.17
2019-01-03T19:28:56.170Z,16.90
2019-01-03T19:31:31.797Z,17.93
2019-01-03T19:34:03.213Z,18.47
2019-01-03T19:36:37.791Z,19.97
2019-01-03T19:39:13.860Z,17.37
2019-01-03T19:41:43.419Z,20.23
2019-01-03T19:44:16.626Z,25.73
2019-01-03T19:46:48.268Z,17.37
2019-01-03T19:49:22.939Z,17.83
2019-01-03T19:51:53.459Z,19.10
2019-01-03T19:54:38.563Z,19.10
2019-01-03T19:57:04.983Z,13.93
2019-01-03T19:59:35.508Z,17.80
2019-01-03T20:02:05.833Z,12.27
2019-01-03T20:04:35.582Z,14.50
2019-01-03T20:07:05.741Z,11.50
2019-01-03T20:09:38.086Z,19.27
2019-01-03T20:12:09.611Z,17.93
2019-01-03T20:14:42.603Z,19.80
2019-01-03T20:17:21.096Z,27.00
2019-01-03T20:19:51.398Z,20.30
2019-01-03T20:22:23.212Z,23.53
2019-01-03T20:24:59.469Z,21.20
2019-01-03T20:27:31.998Z,15.17
2019-01-03T20:30:05.056Z,12.77
2019-01-03T20:32:36.317Z,16.33
2019-01-03T20:35:11.009Z,12.87
2019-01-03T20:37:40.813Z,13.40
2019-01-03T20:40:10.944Z,19.33
2019-01-03T20:42:41.087Z,14.53
2019-01-03T20:45:15.649Z,14.80
2019-01-03T20:47:45.659Z,14.57
2019-01-03T20:50:36.515Z,14.53
2019-01-03T20:53:11.230Z,13.27
2019-01-03T20:55:44.352Z,14.23
2019-01-03T20:58:14.462Z,17.37
2019-01-03T21:00:47.110Z,11.90
2019-01-03T21:03:21.823Z,11.33
2019-01-03T21:05:57.236Z,15.70
2019-01-03T21:08:36.682Z,12.60
2019-01-03T21:11:28.334Z,12.10
2019-01-03T21:14:04.118Z,11.70
2019-01-03T21:16:41.710Z,15.87
2019-01-03T21:19:25.959Z,11.73
2019-01-03T21:22:17.367Z,12.57
2019-01-03T21:24:57.818Z,15.03
2019-01-03T21:27:41.541Z,10.00
2019-01-03T21:30:17.290Z,21.40
2019-01-03T21:32:57.789Z,20.50
2019-01-03T21:35:33.034Z,17.50
2019-01-03T21:38:04.428Z,13.23
2019-01-03T21:40:48.224Z,13.93
2019-01-03T21:43:30.192Z,19.00
2019-01-03T21:46:00.887Z,11.20
2019-01-03T21:48:35.464Z,13.00
2019-01-03T21:51:12.988Z,16.23
2019-01-03T21:53:47.021Z,13.30
2019-01-03T21:59:41.254Z,9.87
2019-01-03T22:02:31.721Z,10.40
2019-01-03T22:05:08.971Z,9.00
2019-01-03T22:07:48.341Z,10.10
2019-01-03T22:10:27.437Z,15.13
2019-01-03T22:13:05.623Z,25.83
2019-01-03T22:15:53.059Z,24.07
2019-01-03T22:18:33.158Z,25.07
2019-01-03T22:21:06.900Z,16.90
2019-01-03T22:23:37.771Z,14.00
2019-01-03T22:26:22.273Z,16.90
2019-01-03T22:28:56.476Z,11.63
2019-01-03T22:32:01.215Z,10.60
2019-01-03T22:35:05.229Z,10.60
2019-01-03T22:38:14.800Z,8.97
2019-01-03T22:41:01.606Z,8.43
2019-01-03T22:43:55.866Z,13.60
2019-01-03T22:48:24.004Z,9.97
2019-01-03T22:49:48.845Z,7.77
2019-01-03T22:55:50.905Z,12.07
2019-01-03T22:58:46.505Z,5.77
2019-01-03T23:01:24.701Z,6.97
2019-01-03T23:04:48.930Z,6.77
2019-01-03T23:07:02.864Z,6.93
2019-01-03T23:09:42.629Z,11.30
2019-01-03T23:12:29.900Z,11.20
2019-01-03T23:15:07.949Z,8.97
2019-01-03T23:20:55.587Z,12.43
2019-01-03T23:23:54.996Z,13.53
2019-01-03T23:26:39.639Z,15.73
2019-01-03T23:29:33.132Z,11.57
2019-01-03T23:32:16.091Z,13.70
2019-01-03T23:38:10.118Z,12.13
2019-01-03T23:41:09.101Z,11.83
2019-01-03T23:43:48.961Z,12.23
2019-01-03T23:49:37.374Z,8.43
2019-01-03T23:52:28.204Z,14.40
2019-01-03T23:55:10.687Z,7.97
